sensor_id;sensor_type;location;lat;lon;timestamp;pressure;altitude;pressure_sealevel;temperature;humidity
9462;BME280;4769;42.660;23.262;2023-02-28T00:01:21;94435.38;;;8.92;100.00
9462;BME280;4769;42.660;23.262;2023-02-28T00:04:02;94425.28;;;8.89;100.00
9462;BME280;4769;42.660;23.262;2023-02-28T00:06:29;94429.47;;;8.60;100.00
9462;BME280;4769;42.660;23.262;2023-02-28T00:08:56;94434.38;;;8.57;100.00
9462;BME280;4769;42.660;23.262;2023-02-28T00:11:23;94435.91;;;8.64;100.00
9462;BME280;4769;42.660;23.262;2023-02-28T00:13:50;94434.44;;;8.68;100.00
9462;BME280;4769;42.660;23.262;2023-02-28T00:16:20;94439.84;;;8.73;100.00
9462;BME280;4769;42.660;23.262;2023-02-28T00:18:47;94434.50;;;8.80;100.00
9462;BME280;4769;42.660;23.262;2023-02-28T00:21:14;94442.09;;;8.70;100.00
9462;BME280;4769;42.660;23.262;2023-02-28T00:23:41;94442.47;;;8.73;100.00
9462;BME280;4769;42.660;23.262;2023-02-28T00:26:09;94443.00;;;8.64;100.00
9462;BME280;4769;42.660;23.262;2023-02-28T00:28:36;94447.81;;;8.67;100.00
9462;BME280;4769;42.660;23.262;2023-02-28T00:31:03;94450.78;;;8.70;100.00
9462;BME280;4769;42.660;23.262;2023-02-28T00:33:35;94448.81;;;8.66;100.00
9462;BME280;4769;42.660;23.262;2023-02-28T00:36:04;94455.25;;;8.70;100.00
9462;BME280;4769;42.660;23.262;2023-02-28T00:38:32;94449.72;;;8.78;100.00
9462;BME280;4769;42.660;23.262;2023-02-28T00:41:00;94448.00;;;8.83;100.00
9462;BME280;4769;42.660;23.262;2023-02-28T00:43:32;94440.47;;;8.87;100.00
9462;BME280;4769;42.660;23.262;2023-02-28T00:45:58;94443.03;;;8.75;100.00
9462;BME280;4769;42.660;23.262;2023-02-28T00:48:25;94444.22;;;8.61;100.00
9462;BME280;4769;42.660;23.262;2023-02-28T00:51:10;94436.31;;;8.61;100.00
9462;BME280;4769;42.660;23.262;2023-02-28T00:53:37;94445.38;;;8.65;100.00
9462;BME280;4769;42.660;23.262;2023-02-28T00:56:05;94450.72;;;8.59;100.00
9462;BME280;4769;42.660;23.262;2023-02-28T00:58:32;94440.06;;;8.54;100.00
9462;BME280;4769;42.660;23.262;2023-02-28T01:00:59;94445.69;;;8.57;100.00
9462;BME280;4769;42.660;23.262;2023-02-28T01:03:26;94434.38;;;8.39;100.00
9462;BME280;4769;42.660;23.262;2023-02-28T01:05:53;94443.00;;;8.46;100.00
9462;BME280;4769;42.660;23.262;2023-02-28T01:08:22;94437.88;;;8.51;100.00
9462;BME280;4769;42.660;23.262;2023-02-28T01:10:49;94429.06;;;8.45;100.00
9462;BME280;4769;42.660;23.262;2023-02-28T01:13:16;94444.25;;;8.43;100.00
9462;BME280;4769;42.660;23.262;2023-02-28T01:15:49;94436.94;;;8.45;100.00
9462;BME280;4769;42.660;23.262;2023-02-28T01:18:20;94429.72;;;8.41;100.00
9462;BME280;4769;42.660;23.262;2023-02-28T01:20:47;94429.94;;;8.39;100.00
9462;BME280;4769;42.660;23.262;2023-02-28T01:23:17;94424.91;;;8.38;100.00
9462;BME280;4769;42.660;23.262;2023-02-28T01:25:47;94431.47;;;8.29;100.00
9462;BME280;4769;42.660;23.262;2023-02-28T01:28:16;94448.56;;;8.13;100.00
9462;BME280;4769;42.660;23.262;2023-02-28T01:30:47;94441.28;;;8.15;100.00
9462;BME280;4769;42.660;23.262;2023-02-28T01:33:15;94436.88;;;8.09;100.00
9462;BME280;4769;42.660;23.262;2023-02-28T01:35:59;94435.47;;;8.07;100.00
9462;BME280;4769;42.660;23.262;2023-02-28T01:38:26;94437.91;;;7.84;100.00
9462;BME280;4769;42.660;23.262;2023-02-28T01:40:55;94442.59;;;7.82;100.00
9462;BME280;4769;42.660;23.262;2023-02-28T01:43:24;94447.53;;;7.72;100.00
9462;BME280;4769;42.660;23.262;2023-02-28T01:45:53;94445.75;;;7.66;100.00
9462;BME280;4769;42.660;23.262;2023-02-28T01:48:25;94447.31;;;7.49;100.00
9462;BME280;4769;42.660;23.262;2023-02-28T01:50:55;94447.94;;;7.44;100.00
9462;BME280;4769;42.660;23.262;2023-02-28T01:53:29;94446.75;;;7.40;100.00
9462;BME280;4769;42.660;23.262;2023-02-28T01:55:59;94451.44;;;7.32;100.00
9462;BME280;4769;42.660;23.262;2023-02-28T01:58:26;94453.66;;;7.35;100.00
9462;BME280;4769;42.660;23.262;2023-02-28T02:00:53;94451.16;;;7.46;100.00
9462;BME280;4769;42.660;23.262;2023-02-28T02:03:20;94446.03;;;7.58;100.00
9462;BME280;4769;42.660;23.262;2023-02-28T02:05:47;94455.28;;;7.60;100.00
9462;BME280;4769;42.660;23.262;2023-02-28T02:08:17;94445.09;;;7.46;100.00
9462;BME280;4769;42.660;23.262;2023-02-28T02:10:46;94451.13;;;7.53;100.00
9462;BME280;4769;42.660;23.262;2023-02-28T02:13:29;94437.53;;;7.56;100.00
9462;BME280;4769;42.660;23.262;2023-02-28T02:16:04;94437.25;;;7.70;100.00
9462;BME280;4769;42.660;23.262;2023-02-28T02:18:46;94444.19;;;7.83;100.00
9462;BME280;4769;42.660;23.262;2023-02-28T02:21:52;94426.03;;;7.81;100.00
9462;BME280;4769;42.660;23.262;2023-02-28T02:24:59;94446.97;;;7.88;100.00
9462;BME280;4769;42.660;23.262;2023-02-28T02:27:43;94434.03;;;7.68;100.00
9462;BME280;4769;42.660;23.262;2023-02-28T02:30:32;94438.38;;;7.81;100.00
9462;BME280;4769;42.660;23.262;2023-02-28T02:33:28;94426.84;;;7.57;100.00
9462;BME280;4769;42.660;23.262;2023-02-28T02:36:05;94430.97;;;7.71;100.00
9462;BME280;4769;42.660;23.262;2023-02-28T02:38:37;94436.09;;;7.60;100.00
9462;BME280;4769;42.660;23.262;2023-02-28T02:41:12;94434.28;;;7.60;100.00
9462;BME280;4769;42.660;23.262;2023-02-28T02:43:44;94455.44;;;7.65;100.00
9462;BME280;4769;42.660;23.262;2023-02-28T02:46:17;94453.31;;;7.80;100.00
9462;BME280;4769;42.660;23.262;2023-02-28T02:48:46;94445.75;;;7.66;100.00
9462;BME280;4769;42.660;23.262;2023-02-28T02:51:16;94454.22;;;7.68;100.00
9462;BME280;4769;42.660;23.262;2023-02-28T02:53:48;94436.50;;;7.39;100.00
9462;BME280;4769;42.660;23.262;2023-02-28T02:56:18;94452.75;;;7.47;100.00
9462;BME280;4769;42.660;23.262;2023-02-28T02:58:47;94453.44;;;7.61;100.00
9462;BME280;4769;42.660;23.262;2023-02-28T03:01:18;94453.94;;;7.51;100.00
9462;BME280;4769;42.660;23.262;2023-02-28T03:03:55;94468.47;;;7.54;100.00
9462;BME280;4769;42.660;23.262;2023-02-28T03:06:24;94454.31;;;7.55;100.00
9462;BME280;4769;42.660;23.262;2023-02-28T03:08:51;94464.72;;;7.68;100.00
9462;BME280;4769;42.660;23.262;2023-02-28T03:11:18;94459.94;;;7.58;100.00
9462;BME280;4769;42.660;23.262;2023-02-28T03:17:01;94480.53;;;7.86;100.00
9462;BME280;4769;42.660;23.262;2023-02-28T03:19:35;94476.47;;;7.90;100.00
9462;BME280;4769;42.660;23.262;2023-02-28T03:22:14;94485.56;;;7.87;100.00
9462;BME280;4769;42.660;23.262;2023-02-28T03:24:49;94486.34;;;7.88;100.00
9462;BME280;4769;42.660;23.262;2023-02-28T03:27:21;94485.47;;;7.94;100.00
9462;BME280;4769;42.660;23.262;2023-02-28T03:29:53;94481.34;;;8.04;100.00
9462;BME280;4769;42.660;23.262;2023-02-28T03:32:27;94482.47;;;8.15;100.00
9462;BME280;4769;42.660;23.262;2023-02-28T03:34:58;94492.22;;;8.08;100.00
9462;BME280;4769;42.660;23.262;2023-02-28T03:37:34;94480.41;;;7.99;100.00
9462;BME280;4769;42.660;23.262;2023-02-28T03:40:05;94482.66;;;7.95;100.00
9462;BME280;4769;42.660;23.262;2023-02-28T03:42:36;94487.94;;;7.89;100.00
9462;BME280;4769;42.660;23.262;2023-02-28T03:45:08;94490.16;;;7.92;100.00
9462;BME280;4769;42.660;23.262;2023-02-28T03:47:40;94491.72;;;7.99;100.00
9462;BME280;4769;42.660;23.262;2023-02-28T03:50:13;94494.78;;;7.96;100.00
9462;BME280;4769;42.660;23.262;2023-02-28T03:52:46;94507.63;;;8.04;100.00
9462;BME280;4769;42.660;23.262;2023-02-28T03:55:14;94506.81;;;7.79;100.00
9462;BME280;4769;42.660;23.262;2023-02-28T03:57:49;94512.19;;;7.91;100.00
9462;BME280;4769;42.660;23.262;2023-02-28T04:00:20;94513.50;;;7.75;100.00
9462;BME280;4769;42.660;23.262;2023-02-28T04:02:47;94511.41;;;7.59;100.00
9462;BME280;4769;42.660;23.262;2023-02-28T04:05:18;94505.41;;;7.52;100.00
9462;BME280;4769;42.660;23.262;2023-02-28T04:07:46;94506.34;;;7.64;100.00
9462;BME280;4769;42.660;23.262;2023-02-28T04:10:14;94503.84;;;7.76;100.00
9462;BME280;4769;42.660;23.262;2023-02-28T04:12:41;94507.97;;;7.90;100.00
9462;BME280;4769;42.660;23.262;2023-02-28T04:15:08;94499.22;;;7.96;100.00
9462;BME280;4769;42.660;23.262;2023-02-28T04:17:36;94508.34;;;7.93;100.00
9462;BME280;4769;42.660;23.262;2023-02-28T04:20:03;94511.47;;;8.02;100.00
9462;BME280;4769;42.660;23.262;2023-02-28T04:22:35;94506.59;;;8.05;100.00
9462;BME280;4769;42.660;23.262;2023-02-28T04:25:04;94500.19;;;8.01;100.00
9462;BME280;4769;42.660;23.262;2023-02-28T04:27:32;94501.13;;;8.07;100.00
9462;BME280;4769;42.660;23.262;2023-02-28T04:29:58;94493.19;;;8.13;100.00
9462;BME280;4769;42.660;23.262;2023-02-28T04:32:25;94497.22;;;8.16;100.00
9462;BME280;4769;42.660;23.262;2023-02-28T04:34:52;94503.84;;;8.18;100.00
9462;BME280;4769;42.660;23.262;2023-02-28T04:41:30;94513.16;;;8.21;100.00
9462;BME280;4769;42.660;23.262;2023-02-28T04:45:51;94518.03;;;8.17;100.00
9462;BME280;4769;42.660;23.262;2023-02-28T04:48:22;94528.16;;;8.14;100.00
9462;BME280;4769;42.660;23.262;2023-02-28T04:50:51;94521.47;;;8.18;100.00
9462;BME280;4769;42.660;23.262;2023-02-28T04:55:03;94529.31;;;8.24;100.00
9462;BME280;4769;42.660;23.262;2023-02-28T04:57:29;94530.25;;;8.30;100.00
9462;BME280;4769;42.660;23.262;2023-02-28T04:59:55;94532.31;;;8.28;100.00
9462;BME280;4769;42.660;23.262;2023-02-28T05:02:20;94539.97;;;8.29;100.00
9462;BME280;4769;42.660;23.262;2023-02-28T05:04:46;94535.50;;;8.30;100.00
9462;BME280;4769;42.660;23.262;2023-02-28T05:07:12;94536.19;;;8.19;100.00
9462;BME280;4769;42.660;23.262;2023-02-28T05:09:37;94534.19;;;8.14;100.00
9462;BME280;4769;42.660;23.262;2023-02-28T05:12:06;94534.19;;;8.14;100.00
9462;BME280;4769;42.660;23.262;2023-02-28T05:14:33;94534.59;;;8.18;100.00
9462;BME280;4769;42.660;23.262;2023-02-28T05:16:58;94530.78;;;8.14;100.00
9462;BME280;4769;42.660;23.262;2023-02-28T05:19:24;94544.13;;;8.12;100.00
9462;BME280;4769;42.660;23.262;2023-02-28T05:21:51;94545.78;;;8.07;100.00
9462;BME280;4769;42.660;23.262;2023-02-28T05:24:17;94546.75;;;8.12;100.00
9462;BME280;4769;42.660;23.262;2023-02-28T05:26:43;94547.88;;;7.98;100.00
9462;BME280;4769;42.660;23.262;2023-02-28T05:29:11;94553.88;;;8.05;100.00
9462;BME280;4769;42.660;23.262;2023-02-28T05:31:37;94553.97;;;8.17;100.00
9462;BME280;4769;42.660;23.262;2023-02-28T05:34:03;94555.19;;;8.21;100.00
9462;BME280;4769;42.660;23.262;2023-02-28T05:36:28;94555.59;;;8.18;100.00
9462;BME280;4769;42.660;23.262;2023-02-28T05:38:54;94557.22;;;8.19;100.00
9462;BME280;4769;42.660;23.262;2023-02-28T05:41:20;94553.97;;;8.17;100.00
9462;BME280;4769;42.660;23.262;2023-02-28T05:43:46;94569.72;;;8.23;100.00
9462;BME280;4769;42.660;23.262;2023-02-28T05:46:15;94566.25;;;8.29;100.00
9462;BME280;4769;42.660;23.262;2023-02-28T05:48:42;94569.09;;;8.28;100.00
9462;BME280;4769;42.660;23.262;2023-02-28T05:51:08;94574.91;;;8.30;100.00
9462;BME280;4769;42.660;23.262;2023-02-28T05:53:34;94571.50;;;8.29;100.00
9462;BME280;4769;42.660;23.262;2023-02-28T05:56:00;94573.88;;;8.31;100.00
9462;BME280;4769;42.660;23.262;2023-02-28T05:58:26;94577.34;;;8.31;100.00
9462;BME280;4769;42.660;23.262;2023-02-28T06:00:52;94572.59;;;8.40;100.00
9462;BME280;4769;42.660;23.262;2023-02-28T06:03:21;94571.59;;;8.41;100.00
9462;BME280;4769;42.660;23.262;2023-02-28T06:05:46;94570.72;;;8.47;100.00
9462;BME280;4769;42.660;23.262;2023-02-28T06:08:12;94577.59;;;8.48;100.00
9462;BME280;4769;42.660;23.262;2023-02-28T06:10:38;94573.00;;;8.43;100.00
9462;BME280;4769;42.660;23.262;2023-02-28T06:13:04;94578.81;;;8.45;100.00
9462;BME280;4769;42.660;23.262;2023-02-28T06:15:30;94579.34;;;8.54;100.00
9462;BME280;4769;42.660;23.262;2023-02-28T06:17:59;94580.16;;;8.54;100.00
9462;BME280;4769;42.660;23.262;2023-02-28T06:20:27;94574.03;;;8.60;100.00
9462;BME280;4769;42.660;23.262;2023-02-28T06:22:53;94571.56;;;8.65;100.00
9462;BME280;4769;42.660;23.262;2023-02-28T06:25:19;94563.66;;;8.65;100.00
9462;BME280;4769;42.660;23.262;2023-02-28T06:27:47;94568.09;;;8.71;100.00
9462;BME280;4769;42.660;23.262;2023-02-28T06:30:14;94574.72;;;8.74;100.00
9462;BME280;4769;42.660;23.262;2023-02-28T06:32:40;94582.97;;;8.77;100.00
9462;BME280;4769;42.660;23.262;2023-02-28T06:35:07;94585.38;;;8.79;100.00
9462;BME280;4769;42.660;23.262;2023-02-28T06:37:35;94581.94;;;8.78;100.00
9462;BME280;4769;42.660;23.262;2023-02-28T06:40:01;94592.91;;;8.93;100.00
9462;BME280;4769;42.660;23.262;2023-02-28T06:42:27;94593.56;;;8.89;100.00
9462;BME280;4769;42.660;23.262;2023-02-28T06:44:53;94592.91;;;8.93;100.00
9462;BME280;4769;42.660;23.262;2023-02-28T06:47:18;94596.13;;;8.95;100.00
9462;BME280;4769;42.660;23.262;2023-02-28T06:49:44;94593.16;;;8.92;100.00
9462;BME280;4769;42.660;23.262;2023-02-28T06:52:10;94594.53;;;8.94;100.00
9462;BME280;4769;42.660;23.262;2023-02-28T06:54:39;94598.41;;;8.92;100.00
9462;BME280;4769;42.660;23.262;2023-02-28T06:57:04;94598.16;;;8.93;100.00
9462;BME280;4769;42.660;23.262;2023-02-28T06:59:30;94604.00;;;8.77;100.00
9462;BME280;4769;42.660;23.262;2023-02-28T07:01:56;94594.59;;;8.88;100.00
9462;BME280;4769;42.660;23.262;2023-02-28T07:04:22;94600.34;;;8.78;100.00
9462;BME280;4769;42.660;23.262;2023-02-28T07:06:48;94596.28;;;8.82;100.00
9462;BME280;4769;42.660;23.262;2023-02-28T07:09:17;94594.13;;;8.73;100.00
9462;BME280;4769;42.660;23.262;2023-02-28T07:11:54;94587.72;;;8.69;100.00
9462;BME280;4769;42.660;23.262;2023-02-28T07:14:22;94591.59;;;8.66;100.00
9462;BME280;4769;42.660;23.262;2023-02-28T07:16:48;94600.34;;;8.78;100.00
9462;BME280;4769;42.660;23.262;2023-02-28T07:19:13;94609.84;;;8.79;100.00
9462;BME280;4769;42.660;23.262;2023-02-28T07:21:39;94596.41;;;8.87;100.00
9462;BME280;4769;42.660;23.262;2023-02-28T07:24:05;94614.47;;;8.84;100.00
9462;BME280;4769;42.660;23.262;2023-02-28T07:26:31;94607.34;;;8.66;100.00
9462;BME280;4769;42.660;23.262;2023-02-28T07:28:59;94601.44;;;8.71;100.00
9462;BME280;4769;42.660;23.262;2023-02-28T07:31:25;94601.22;;;8.72;100.00
9462;BME280;4769;42.660;23.262;2023-02-28T07:33:51;94603.25;;;8.52;100.00
9462;BME280;4769;42.660;23.262;2023-02-28T07:36:17;94608.16;;;8.67;100.00
9462;BME280;4769;42.660;23.262;2023-02-28T07:38:44;94605.66;;;8.72;100.00
9462;BME280;4769;42.660;23.262;2023-02-28T07:41:18;94614.00;;;8.69;100.00
9462;BME280;4769;42.660;23.262;2023-02-28T07:43:44;94615.81;;;8.44;100.00
9462;BME280;4769;42.660;23.262;2023-02-28T07:46:23;94604.69;;;8.48;100.00
9462;BME280;4769;42.660;23.262;2023-02-28T07:48:49;94597.97;;;8.52;100.00
9462;BME280;4769;42.660;23.262;2023-02-28T07:51:17;94598.34;;;8.56;100.00
9462;BME280;4769;42.660;23.262;2023-02-28T07:53:42;94602.72;;;8.62;100.00
9462;BME280;4769;42.660;23.262;2023-02-28T07:56:08;94602.72;;;8.62;100.00
9462;BME280;4769;42.660;23.262;2023-02-28T07:58:34;94600.09;;;8.62;100.00
9462;BME280;4769;42.660;23.262;2023-02-28T08:01:05;94602.72;;;8.62;100.00
9462;BME280;4769;42.660;23.262;2023-02-28T08:03:33;94590.94;;;8.46;100.00
9462;BME280;4769;42.660;23.262;2023-02-28T08:05:59;94608.72;;;8.51;100.00
9462;BME280;4769;42.660;23.262;2023-02-28T08:08:25;94595.34;;;8.52;100.00
9462;BME280;4769;42.660;23.262;2023-02-28T08:10:50;94605.63;;;8.54;100.00
9462;BME280;4769;42.660;23.262;2023-02-28T08:13:16;94597.69;;;8.60;100.00
9462;BME280;4769;42.660;23.262;2023-02-28T08:15:42;94606.53;;;8.66;100.00
9462;BME280;4769;42.660;23.262;2023-02-28T08:18:07;94598.28;;;8.62;100.00
9462;BME280;4769;42.660;23.262;2023-02-28T08:20:35;94610.50;;;8.75;100.00
9462;BME280;4769;42.660;23.262;2023-02-28T08:23:01;94607.06;;;8.74;100.00
9462;BME280;4769;42.660;23.262;2023-02-28T08:25:27;94613.13;;;8.75;100.00
9462;BME280;4769;42.660;23.262;2023-02-28T08:27:52;94613.91;;;8.75;100.00
9462;BME280;4769;42.660;23.262;2023-02-28T08:30:18;94616.19;;;8.72;100.00
9462;BME280;4769;42.660;23.262;2023-02-28T08:32:44;94614.47;;;8.59;100.00
9462;BME280;4769;42.660;23.262;2023-02-28T08:35:10;94620.75;;;8.58;100.00
9462;BME280;4769;42.660;23.262;2023-02-28T08:37:38;94616.69;;;8.62;100.00
9462;BME280;4769;42.660;23.262;2023-02-28T08:40:05;94621.22;;;8.73;100.00
9462;BME280;4769;42.660;23.262;2023-02-28T08:42:32;94619.50;;;8.85;100.00
9462;BME280;4769;42.660;23.262;2023-02-28T08:44:58;94621.47;;;8.90;100.00
9462;BME280;4769;42.660;23.262;2023-02-28T08:47:23;94616.22;;;8.90;100.00
9462;BME280;4769;42.660;23.262;2023-02-28T08:49:49;94615.28;;;9.02;100.00
9462;BME280;4769;42.660;23.262;2023-02-28T08:52:15;94613.47;;;9.03;100.00
9462;BME280;4769;42.660;23.262;2023-02-28T08:54:43;94615.00;;;9.10;100.00
9462;BME280;4769;42.660;23.262;2023-02-28T08:57:09;94619.69;;;9.08;100.00
9462;BME280;4769;42.660;23.262;2023-02-28T08:59:34;94618.06;;;9.25;100.00
9462;BME280;4769;42.660;23.262;2023-02-28T09:02:00;94616.75;;;9.34;100.00
9462;BME280;4769;42.660;23.262;2023-02-28T09:04:26;94615.13;;;9.33;100.00
9462;BME280;4769;42.660;23.262;2023-02-28T09:06:51;94611.88;;;9.49;100.00
9462;BME280;4769;42.660;23.262;2023-02-28T09:09:17;94607.38;;;9.56;100.00
9462;BME280;4769;42.660;23.262;2023-02-28T09:11:45;94609.34;;;9.90;100.00
9462;BME280;4769;42.660;23.262;2023-02-28T09:14:11;94613.81;;;9.90;100.00
9462;BME280;4769;42.660;23.262;2023-02-28T09:16:37;94603.50;;;9.88;100.00
9462;BME280;4769;42.660;23.262;2023-02-28T09:19:02;94608.75;;;9.88;100.00
9462;BME280;4769;42.660;23.262;2023-02-28T09:21:28;94608.28;;;9.91;100.00
9462;BME280;4769;42.660;23.262;2023-02-28T09:23:54;94604.56;;;9.99;100.00
9462;BME280;4769;42.660;23.262;2023-02-28T09:26:22;94603.69;;;10.05;100.00
9462;BME280;4769;42.660;23.262;2023-02-28T09:28:52;94608.31;;;10.21;100.00
9462;BME280;4769;42.660;23.262;2023-02-28T09:31:20;94599.06;;;10.41;100.00
9462;BME280;4769;42.660;23.262;2023-02-28T09:33:46;94599.69;;;10.66;100.00
9462;BME280;4769;42.660;23.262;2023-02-28T09:36:12;94605.06;;;10.94;100.00
9462;BME280;4769;42.660;23.262;2023-02-28T09:38:38;94602.06;;;11.02;100.00
9462;BME280;4769;42.660;23.262;2023-02-28T09:41:11;94608.47;;;11.18;100.00
9462;BME280;4769;42.660;23.262;2023-02-28T09:43:43;94604.44;;;11.27;100.00
9462;BME280;4769;42.660;23.262;2023-02-28T09:46:21;94597.91;;;11.29;100.00
9462;BME280;4769;42.660;23.262;2023-02-28T09:48:51;94596.19;;;11.35;100.00
9462;BME280;4769;42.660;23.262;2023-02-28T09:51:29;94596.28;;;11.40;100.00
9462;BME280;4769;42.660;23.262;2023-02-28T09:53:56;94596.38;;;11.45;100.00
9462;BME280;4769;42.660;23.262;2023-02-28T09:56:25;94594.69;;;11.39;100.00
9462;BME280;4769;42.660;23.262;2023-02-28T09:58:56;94590.09;;;11.34;100.00
9462;BME280;4769;42.660;23.262;2023-02-28T10:01:31;94592.69;;;11.46;100.00
9462;BME280;4769;42.660;23.262;2023-02-28T10:04:03;94599.16;;;11.27;100.00
9462;BME280;4769;42.660;23.262;2023-02-28T10:06:39;94591.63;;;11.07;100.00
9462;BME280;4769;42.660;23.262;2023-02-28T10:09:11;94590.22;;;11.16;100.00
9462;BME280;4769;42.660;23.262;2023-02-28T10:11:38;94572.25;;;11.02;100.00
9462;BME280;4769;42.660;23.262;2023-02-28T10:14:10;94582.69;;;11.08;100.00
9462;BME280;4769;42.660;23.262;2023-02-28T10:16:43;94579.34;;;11.13;100.00
9462;BME280;4769;42.660;23.262;2023-02-28T10:19:14;94570.47;;;11.30;100.00
9462;BME280;4769;42.660;23.262;2023-02-28T10:21:44;94570.53;;;11.47;100.00
9462;BME280;4769;42.660;23.262;2023-02-28T10:24:20;94578.19;;;11.71;100.00
9462;BME280;4769;42.660;23.262;2023-02-28T10:26:48;94562.78;;;11.96;100.00
9462;BME280;4769;42.660;23.262;2023-02-28T10:29:17;94559.06;;;12.09;100.00
9462;BME280;4769;42.660;23.262;2023-02-28T10:31:46;94559.41;;;12.29;100.00
9462;BME280;4769;42.660;23.262;2023-02-28T10:34:12;94557.06;;;12.49;99.75
9462;BME280;4769;42.660;23.262;2023-02-28T10:36:38;94552.28;;;12.62;98.96
9462;BME280;4769;42.660;23.262;2023-02-28T10:39:33;94545.09;;;12.79;97.15
9462;BME280;4769;42.660;23.262;2023-02-28T10:41:59;94535.22;;;13.08;96.75
9462;BME280;4769;42.660;23.262;2023-02-28T10:44:24;94528.16;;;13.35;95.71
9462;BME280;4769;42.660;23.262;2023-02-28T10:46:53;94526.34;;;13.62;94.63
9462;BME280;4769;42.660;23.262;2023-02-28T10:49:21;94522.41;;;13.91;92.89
9462;BME280;4769;42.660;23.262;2023-02-28T10:51:52;94507.03;;;13.93;91.66
9462;BME280;4769;42.660;23.262;2023-02-28T10:54:22;94500.84;;;14.09;90.65
9462;BME280;4769;42.660;23.262;2023-02-28T10:57:06;94499.72;;;14.05;89.79
9462;BME280;4769;42.660;23.262;2023-02-28T10:59:32;94506.03;;;13.99;87.89
9462;BME280;4769;42.660;23.262;2023-02-28T11:02:01;94504.22;;;14.04;87.81
9462;BME280;4769;42.660;23.262;2023-02-28T11:04:34;94495.53;;;13.82;87.80
9462;BME280;4769;42.660;23.262;2023-02-28T11:07:02;94489.25;;;13.62;89.24
9462;BME280;4769;42.660;23.262;2023-02-28T11:09:32;94494.78;;;13.60;89.81
9462;BME280;4769;42.660;23.262;2023-02-28T11:11:58;94488.59;;;13.76;88.40
9462;BME280;4769;42.660;23.262;2023-02-28T11:14:27;94487.63;;;13.87;88.24
9462;BME280;4769;42.660;23.262;2023-02-28T11:16:54;94480.88;;;13.75;86.72
9462;BME280;4769;42.660;23.262;2023-02-28T11:19:28;94488.78;;;13.70;86.03
9462;BME280;4769;42.660;23.262;2023-02-28T11:21:59;94479.69;;;13.61;87.86
9462;BME280;4769;42.660;23.262;2023-02-28T11:24:27;94481.84;;;13.64;87.13
9462;BME280;4769;42.660;23.262;2023-02-28T11:26:54;94476.53;;;13.64;87.42
9462;BME280;4769;42.660;23.262;2023-02-28T11:29:22;94469.63;;;13.89;85.55
9462;BME280;4769;42.660;23.262;2023-02-28T11:32:11;94474.19;;;14.21;85.20
9462;BME280;4769;42.660;23.262;2023-02-28T11:34:42;94467.81;;;14.22;84.41
9462;BME280;4769;42.660;23.262;2023-02-28T11:37:12;94464.38;;;14.58;83.12
9462;BME280;4769;42.660;23.262;2023-02-28T11:39:38;94457.41;;;14.52;82.40
9462;BME280;4769;42.660;23.262;2023-02-28T11:45:17;94462.63;;;14.37;83.40
9462;BME280;4769;42.660;23.262;2023-02-28T11:47:48;94457.69;;;14.55;83.52
9462;BME280;4769;42.660;23.262;2023-02-28T11:50:33;94461.19;;;15.07;82.69
9462;BME280;4769;42.660;23.262;2023-02-28T11:53:12;94457.78;;;15.22;79.94
9462;BME280;4769;42.660;23.262;2023-02-28T11:55:44;94447.44;;;15.25;79.32
9462;BME280;4769;42.660;23.262;2023-02-28T11:58:29;94449.56;;;15.23;78.92
9462;BME280;4769;42.660;23.262;2023-02-28T12:01:15;94455.94;;;15.27;78.81
9462;BME280;4769;42.660;23.262;2023-02-28T12:03:53;94455.53;;;15.50;78.63
9462;BME280;4769;42.660;23.262;2023-02-28T12:06:30;94443.31;;;15.59;76.76
9462;BME280;4769;42.660;23.262;2023-02-28T12:09:08;94448.38;;;15.56;76.57
9462;BME280;4769;42.660;23.262;2023-02-28T12:11:44;94451.47;;;15.33;77.90
9462;BME280;4769;42.660;23.262;2023-02-28T12:14:32;94443.03;;;14.89;79.88
9462;BME280;4769;42.660;23.262;2023-02-28T12:17:16;94445.22;;;15.02;79.96
9462;BME280;4769;42.660;23.262;2023-02-28T12:19:53;94443.28;;;14.88;80.64
9462;BME280;4769;42.660;23.262;2023-02-28T12:22:32;94445.00;;;15.14;79.24
9462;BME280;4769;42.660;23.262;2023-02-28T12:25:33;94446.25;;;15.01;79.30
9462;BME280;4769;42.660;23.262;2023-02-28T12:28:03;94445.66;;;15.41;77.20
9462;BME280;4769;42.660;23.262;2023-02-28T12:30:31;94444.41;;;15.63;76.76
9462;BME280;4769;42.660;23.262;2023-02-28T12:33:04;94441.72;;;15.58;75.87
9462;BME280;4769;42.660;23.262;2023-02-28T12:35:34;94440.69;;;15.69;74.39
9462;BME280;4769;42.660;23.262;2023-02-28T12:38:10;94441.09;;;15.31;73.70
9462;BME280;4769;42.660;23.262;2023-02-28T12:40:44;94445.44;;;14.91;76.47
9462;BME280;4769;42.660;23.262;2023-02-28T12:43:13;94451.91;;;15.10;76.41
9462;BME280;4769;42.660;23.262;2023-02-28T12:45:42;94431.84;;;14.82;78.09
9462;BME280;4769;42.660;23.262;2023-02-28T12:48:14;94433.13;;;14.75;79.24
9462;BME280;4769;42.660;23.262;2023-02-28T12:50:40;94432.38;;;14.79;79.29
9462;BME280;4769;42.660;23.262;2023-02-28T12:53:15;94440.97;;;14.50;79.94
9462;BME280;4769;42.660;23.262;2023-02-28T12:55:48;94434.56;;;14.46;79.36
9462;BME280;4769;42.660;23.262;2023-02-28T12:58:20;94418.44;;;14.57;79.96
9462;BME280;4769;42.660;23.262;2023-02-28T13:01:06;94433.16;;;14.33;80.50
9462;BME280;4769;42.660;23.262;2023-02-28T13:03:52;94433.63;;;14.25;80.82
9462;BME280;4769;42.660;23.262;2023-02-28T13:06:51;94435.06;;;14.11;80.79
9462;BME280;4769;42.660;23.262;2023-02-28T13:09:27;94426.88;;;13.81;82.43
9462;BME280;4769;42.660;23.262;2023-02-28T13:11:54;94424.31;;;13.91;82.10
9462;BME280;4769;42.660;23.262;2023-02-28T13:14:24;94427.75;;;13.91;81.81
9462;BME280;4769;42.660;23.262;2023-02-28T13:17:00;94433.94;;;13.70;82.60
9462;BME280;4769;42.660;23.262;2023-02-28T13:19:28;94422.84;;;13.47;83.52
9462;BME280;4769;42.660;23.262;2023-02-28T13:21:56;94425.25;;;13.48;84.18
9462;BME280;4769;42.660;23.262;2023-02-28T13:24:47;94416.56;;;13.53;84.77
9462;BME280;4769;42.660;23.262;2023-02-28T13:27:31;94421.09;;;13.89;82.65
9462;BME280;4769;42.660;23.262;2023-02-28T13:29:58;94423.81;;;13.94;82.64
9462;BME280;4769;42.660;23.262;2023-02-28T13:32:41;94423.44;;;14.17;81.11
9462;BME280;4769;42.660;23.262;2023-02-28T13:35:35;94420.44;;;14.35;79.77
9462;BME280;4769;42.660;23.262;2023-02-28T13:38:21;94415.28;;;13.87;80.21
9462;BME280;4769;42.660;23.262;2023-02-28T13:40:50;94405.94;;;13.79;81.07